Kelibia, Tunisia
Current Conditions -  °F | °C
As of 10:00 AM on Tuesday 21 Oct 2014 (Local Time) from DTTL Reporting Station
Few Clouds Few Clouds  
Wind Chill: 77°   Ceiling: Unl
Heat Index: 79°   Visibility: 6mi
Dew Point: 66°   Wind: 5mph
Humidity: 69%   Direction: NA
Pressure: 30.09"   Gusts: NA
Location:  36.85°N, 11.09°E
Report Text: DTTL 210900Z VRB04KT 9999 FEW020 25/19 Q1019
Loading
Personal Weather Stations






























Interactive Weather Map
Tropical Storm Tracking
New forecast layout! Learn more

10-Day Weather Forecast

Advertisements
Track Severe Weather on mobile